Terminal Aerodrome Forecast
Issued by NWS

Home | Current Version | Previous Version | Text Only | Print | Product List | Glossary Off
Versions: 1 2 3 4 5 6 7 8 9 10 11 12 13 14 15 16 17 18 19 20 21 22 23 24 25 26 27 28 29 30 31 32 33 34 35 36 37 38 39 40 41 42 43 44 45 46 47 48 49

000
FTUS43 KGRB 191739
TAFRHI
TAF
KRHI 191739Z 1918/2018 28007KT P6SM VCSH BKN015
      TEMPO 1918/1921 6SM -SHRA SCT015 BKN025
     FM192100 34006KT P6SM VCSH BKN020
     FM200300 32003KT 1SM BR SCT001 BKN010
     FM200500 33003KT 1/4SM FG OVC001
     FM201500 34005KT 2SM BR OVC005=

USA.gov is the U.S. government's official web portal to all federal, state and local government web resources and services.